Time;durP1;ratioP1;P1;durP2;ratioP2;P2;SDS_P1;SDS_P2;PMS_P1;PMS_P2;Temp;Humidity;BMP_temperature;BMP_pressure;BME280_temperature;BME280_humidity;BME280_pressure;Samples;Min_cycle;Max_cycle;Signal;HPM_P1;HPM_P2
2022/06/06 00:02:30;;;;;;;6.90;3.13;;;;;;;21.88;100.00;-24424.91;5052142;28;20599;-58
2022/06/06 00:04:56;;;;;;;5.90;3.60;;;;;;;21.97;100.00;-24427.56;5052844;28;20170;-57
2022/06/06 00:07:22;;;;;;;6.72;3.03;;;;;;;21.82;100.00;-24423.41;5052289;28;20185;-57
2022/06/06 00:09:47;;;;;;;6.47;2.97;;;;;;;22.31;100.00;-24436.84;5052355;28;20179;-58
2022/06/06 00:12:14;;;;;;;5.85;3.30;;;;;;;21.92;100.00;-24426.16;5052271;28;20659;-58
2022/06/06 00:14:40;;;;;;;6.25;2.67;;;;;;;21.87;100.00;-24424.78;5051999;28;20577;-58
2022/06/06 00:17:05;;;;;;;5.03;3.00;;;;;;;21.81;100.00;-24422.97;5052197;28;20240;-58
2022/06/06 00:19:31;;;;;;;4.57;2.75;;;;;;;22.04;100.00;-24429.34;5052064;28;20182;-58
2022/06/06 00:21:56;;;;;;;4.85;3.28;;;;;;;22.03;100.00;-24429.09;5052058;28;20163;-58
2022/06/06 00:24:22;;;;;;;4.90;3.05;;;;;;;22.13;100.00;-24431.72;5051920;28;20477;-58
2022/06/06 00:26:48;;;;;;;9.77;4.00;;;;;;;22.02;100.00;-24428.94;5052222;28;20169;-58
2022/06/06 00:29:16;;;;;;;6.78;3.42;;;;;;;21.66;100.00;-24418.81;5051642;28;20184;-58
2022/06/06 00:37:12;;;;;;;4.78;2.70;;;;;;;22.33;100.00;-24437.25;5051314;28;20201;-57
2022/06/06 00:39:39;;;;;;;4.63;3.03;;;;;;;21.93;100.00;-24426.44;5058837;28;20174;-58
2022/06/06 00:42:17;;;;;;;3.25;2.80;;;;;;;22.14;100.00;-24432.13;5071524;28;20174;-58
2022/06/06 00:44:43;;;;;;;3.85;2.70;;;;;;;21.90;100.00;-24425.47;5071478;28;20172;-57
2022/06/06 00:47:13;;;;;;;3.20;2.55;;;;;;;22.26;100.00;-24435.31;5071110;28;20234;-57
2022/06/06 00:50:02;;;;;;;2.97;2.53;;;;;;;22.10;100.00;-24431.03;5071349;28;20170;-57
2022/06/06 00:52:35;;;;;;;3.35;2.65;;;;;;;21.87;100.00;-24424.66;5070448;28;20625;-57
2022/06/06 00:55:08;;;;;;;5.63;2.97;;;;;;;21.53;100.00;-24415.38;5071223;28;20166;-57
2022/06/06 00:57:37;;;;;;;5.05;2.90;;;;;;;21.85;100.00;-24424.22;5071352;28;20205;-57
2022/06/06 01:00:14;;;;;;;3.25;2.58;;;;;;;22.10;100.00;-24430.88;5071793;28;20178;-58
2022/06/06 01:02:40;;;;;;;5.20;2.83;;;;;;;21.71;100.00;-24420.34;5071185;28;20184;-57
2022/06/06 01:05:06;;;;;;;3.95;2.83;;;;;;;22.18;100.00;-24433.09;5071121;28;20174;-57
2022/06/06 01:07:33;;;;;;;3.42;2.40;;;;;;;21.83;100.00;-24423.69;5070844;28;20619;-57
2022/06/06 01:09:59;;;;;;;4.95;2.90;;;;;;;21.78;100.00;-24422.28;5071017;28;20171;-57
2022/06/06 01:12:25;;;;;;;6.25;2.83;;;;;;;22.07;100.00;-24430.03;5070359;28;20637;-57
2022/06/06 01:15:00;;;;;;;4.72;3.15;;;;;;;21.90;100.00;-24425.47;5070787;28;20178;-57
2022/06/06 01:18:04;;;;;;;4.65;3.15;;;;;;;21.93;100.00;-24426.31;5071559;28;20193;-58
2022/06/06 01:20:30;;;;;;;6.80;3.00;;;;;;;21.79;100.00;-24422.56;5071557;28;20154;-58
2022/06/06 01:22:58;;;;;;;4.90;3.20;;;;;;;21.78;100.00;-24422.28;5071648;28;20179;-57
2022/06/06 01:25:51;;;;;;;5.47;3.28;;;;;;;21.82;100.00;-24423.41;5071223;28;20246;-57
2022/06/06 01:28:40;;;;;;;5.38;2.90;;;;;;;21.37;100.00;-24410.94;5071510;28;20170;-58
2022/06/06 01:31:11;;;;;;;3.35;2.80;;;;;;;21.31;100.00;-24409.28;5071944;28;20521;-57
2022/06/06 01:33:56;;;;;;;4.10;3.00;;;;;;;21.54;100.00;-24415.66;5071040;28;20191;-57
2022/06/06 01:36:24;;;;;;;5.35;2.92;;;;;;;21.44;100.00;-24413.00;5071327;28;20169;-57
2022/06/06 01:38:50;;;;;;;4.35;2.63;;;;;;;21.43;100.00;-24412.59;5071162;28;20380;-57
2022/06/06 01:41:25;;;;;;;3.30;2.70;;;;;;;21.47;100.00;-24413.69;5071351;28;20257;-58
2022/06/06 01:43:59;;;;;;;4.32;3.05;;;;;;;21.36;100.00;-24410.78;5071333;28;20632;-58
2022/06/06 01:46:34;;;;;;;4.43;2.75;;;;;;;21.75;100.00;-24421.47;5074930;28;20170;-57
2022/06/06 01:49:00;;;;;;;3.97;2.83;;;;;;;21.53;100.00;-24415.50;5075258;28;20174;-58
2022/06/06 01:51:29;;;;;;;4.50;3.03;;;;;;;21.52;100.00;-24415.09;5075046;28;20170;-57
2022/06/06 01:53:55;;;;;;;4.65;3.10;;;;;;;21.07;100.00;-24402.88;5075020;28;20174;-57
2022/06/06 01:56:27;;;;;;;3.22;2.38;;;;;;;21.46;100.00;-24413.44;5075270;28;20264;-57
2022/06/06 01:58:53;;;;;;;3.85;2.60;;;;;;;21.44;100.00;-24413.00;5074453;28;20213;-57
2022/06/06 02:01:19;;;;;;;4.50;2.92;;;;;;;21.69;100.00;-24419.66;5074446;28;20698;-57
2022/06/06 02:03:44;;;;;;;4.25;2.88;;;;;;;21.54;100.00;-24415.66;5074573;28;20174;-57
2022/06/06 02:06:10;;;;;;;5.78;3.00;;;;;;;21.33;100.00;-24409.97;5074718;28;20636;-58
2022/06/06 02:08:36;;;;;;;3.97;2.85;;;;;;;21.43;100.00;-24412.59;5074316;28;20692;-57
2022/06/06 02:11:02;;;;;;;3.92;2.50;;;;;;;21.47;100.00;-24413.84;5074475;28;20177;-57
2022/06/06 02:13:28;;;;;;;3.67;2.35;;;;;;;21.71;100.00;-24420.22;5074341;28;20646;-57
2022/06/06 02:15:54;;;;;;;3.58;2.67;;;;;;;21.62;100.00;-24417.84;5074385;28;20183;-57
2022/06/06 02:18:20;;;;;;;4.25;2.67;;;;;;;21.55;100.00;-24416.06;5074109;28;20220;-57
2022/06/06 02:20:45;;;;;;;3.15;2.17;;;;;;;21.39;100.00;-24411.63;5074069;28;20174;-57
2022/06/06 02:23:12;;;;;;;3.17;2.38;;;;;;;21.66;100.00;-24418.97;5073733;28;20224;-58
2022/06/06 02:25:38;;;;;;;3.95;2.63;;;;;;;21.56;100.00;-24416.34;5073959;28;20155;-58
2022/06/06 02:28:04;;;;;;;2.80;2.33;;;;;;;21.73;100.00;-24420.91;5074241;28;20193;-58
2022/06/06 02:30:33;;;;;;;4.70;2.70;;;;;;;21.71;100.00;-24420.34;5073613;28;20533;-58
2022/06/06 02:32:59;;;;;;;3.35;2.58;;;;;;;21.25;100.00;-24407.59;5074000;28;20166;-57
2022/06/06 02:35:28;;;;;;;4.78;2.78;;;;;;;21.39;100.00;-24411.50;5074065;28;20166;-58
2022/06/06 02:37:56;;;;;;;3.38;2.53;;;;;;;21.39;100.00;-24411.50;5073855;28;20193;-58
2022/06/06 02:40:23;;;;;;;2.78;2.05;;;;;;;21.38;100.00;-24411.22;5073566;28;20543;-57
2022/06/06 02:42:49;;;;;;;3.50;2.70;;;;;;;21.34;100.00;-24410.25;5073718;28;20174;-57
2022/06/06 02:45:15;;;;;;;3.35;2.63;;;;;;;21.01;100.00;-24401.09;5073696;28;20174;-58
2022/06/06 02:47:42;;;;;;;5.28;2.50;;;;;;;20.95;100.00;-24399.56;5073678;28;20379;-58
2022/06/06 02:50:08;;;;;;;4.97;3.13;;;;;;;20.86;100.00;-24397.06;5074029;28;20178;-57
2022/06/06 02:52:34;;;;;;;6.05;3.90;;;;;;;21.35;100.00;-24410.38;5073693;28;20202;-57
2022/06/06 02:55:03;;;;;;;3.75;3.03;;;;;;;21.43;100.00;-24412.72;5073149;28;20658;-63
2022/06/06 02:57:29;;;;;;;4.53;3.00;;;;;;;21.03;100.00;-24401.78;5074249;28;20255;-58
2022/06/06 03:00:00;;;;;;;7.38;3.15;;;;;;;21.63;100.00;-24418.13;5074064;28;20580;-59
2022/06/06 03:02:26;;;;;;;4.32;3.30;;;;;;;21.55;100.00;-24415.91;5073787;28;20698;-59
2022/06/06 03:04:52;;;;;;;3.40;2.63;;;;;;;21.49;100.00;-24414.25;5073512;28;20174;-60
2022/06/06 03:07:38;;;;;;;3.58;2.80;;;;;;;21.63;100.00;-24418.13;5073167;28;20178;-58
2022/06/06 03:10:06;;;;;;;3.60;2.90;;;;;;;21.80;100.00;-24422.84;5073630;28;20655;-59
2022/06/06 03:12:38;;;;;;;5.28;2.88;;;;;;;22.06;100.00;-24429.78;5072843;28;20662;-58
2022/06/06 03:20:46;;;;;;;4.47;2.88;;;;;;;21.80;100.00;-24422.84;5073143;28;20543;-60
2022/06/06 03:21:43;;;;;;;6.32;3.20;;;;;;;21.75;100.00;-24421.31;5065972;28;20252;-59
2022/06/06 03:24:09;;;;;;;4.85;2.97;;;;;;;21.57;100.00;-24416.47;5065832;28;20666;-59
2022/06/06 03:26:49;;;;;;;4.53;2.90;;;;;;;21.06;100.00;-24402.47;5066362;28;20177;-58
2022/06/06 03:29:20;;;;;;;4.45;2.88;;;;;;;21.41;100.00;-24412.03;5065564;28;20193;-57
2022/06/06 03:32:09;;;;;;;4.35;2.80;;;;;;;21.19;100.00;-24406.06;5065916;28;20170;-57
2022/06/06 03:35:14;;;;;;;5.57;2.63;;;;;;;20.24;100.00;-24380.13;5066222;28;20702;-57
2022/06/06 03:37:52;;;;;;;4.47;3.15;;;;;;;20.69;100.00;-24392.34;5065942;28;20202;-57
2022/06/06 03:40:22;;;;;;;4.32;2.78;;;;;;;20.76;100.00;-24394.16;5065041;28;20311;-58
2022/06/06 03:42:52;;;;;;;5.03;2.88;;;;;;;21.04;100.00;-24402.06;5065560;28;20186;-58
2022/06/06 03:45:30;;;;;;;4.03;2.40;;;;;;;21.12;100.00;-24404.28;5065478;28;20219;-58
2022/06/06 03:48:12;;;;;;;5.57;3.42;;;;;;;20.92;100.00;-24398.59;5064507;28;20225;-57
2022/06/06 03:50:50;;;;;;;3.58;2.63;;;;;;;21.02;100.00;-24401.50;5065324;28;20518;-56
2022/06/06 03:53:41;;;;;;;5.78;3.65;;;;;;;20.66;100.00;-24391.50;5063781;28;20552;-58
2022/06/06 03:56:22;;;;;;;5.05;3.50;;;;;;;20.39;100.00;-24384.03;5066141;28;20595;-57
2022/06/06 03:58:48;;;;;;;4.53;3.15;;;;;;;20.62;100.00;-24390.53;5065079;28;20594;-58
2022/06/06 04:01:16;;;;;;;4.85;3.17;;;;;;;20.61;100.00;-24390.13;5065407;28;20182;-57
2022/06/06 04:03:44;;;;;;;4.65;3.10;;;;;;;20.33;100.00;-24382.50;5063667;28;20277;-57
2022/06/06 04:06:10;;;;;;;5.50;3.35;;;;;;;20.37;100.00;-24383.59;5064041;28;21750;-57
2022/06/06 04:08:36;;;;;;;5.80;3.38;;;;;;;20.19;100.00;-24378.59;5063906;28;20335;-56
2022/06/06 04:11:16;;;;;;;9.02;3.28;;;;;;;20.40;100.00;-24384.44;5065056;28;20210;-58
2022/06/06 04:13:47;;;;;;;4.47;3.42;;;;;;;20.31;100.00;-24381.94;5064804;28;20667;-62
2022/06/06 04:16:15;;;;;;;4.35;3.13;;;;;;;20.32;100.00;-24382.22;5063276;28;20185;-56
2022/06/06 04:18:56;;;;;;;9.52;3.78;;;;;;;20.32;100.00;-24382.22;5064741;28;20201;-57
2022/06/06 04:21:41;;;;;;;7.38;3.40;;;;;;;20.25;100.00;-24380.25;5069864;28;20178;-57
2022/06/06 04:24:43;;;;;;;8.93;3.97;;;;;;;20.29;100.00;-24381.50;5055300;28;20213;-57
2022/06/06 04:27:14;;;;;;;5.53;3.72;;;;;;;20.22;100.00;-24379.44;5071642;28;20157;-57
2022/06/06 04:30:00;;;;;;;6.47;3.45;;;;;;;20.02;100.00;-24373.88;5071404;28;20331;-58
2022/06/06 04:32:26;;;;;;;6.13;3.30;;;;;;;19.94;100.00;-24371.78;5070803;28;20601;-57
2022/06/06 04:35:30;;;;;;;5.00;3.33;;;;;;;20.27;100.00;-24380.81;5070467;28;20257;-57
2022/06/06 04:38:18;;;;;;;6.60;3.65;;;;;;;20.22;100.00;-24379.56;5070861;28;20689;-58
2022/06/06 04:40:49;;;;;;;5.47;3.30;;;;;;;20.23;100.00;-24379.72;5050545;28;20251;-56
2022/06/06 04:43:22;;;;;;;4.72;3.20;;;;;;;20.14;100.00;-24377.22;5071021;28;20173;-57
2022/06/06 04:46:14;;;;;;;4.80;3.20;;;;;;;19.99;100.00;-24373.03;5070734;28;20554;-56
2022/06/06 04:48:41;;;;;;;8.48;3.47;;;;;;;19.91;100.00;-24370.81;5071292;28;20288;-58
2022/06/06 04:51:07;;;;;;;6.15;3.58;;;;;;;20.10;100.00;-24376.09;5071171;28;20684;-58
2022/06/06 04:53:38;;;;;;;6.82;3.60;;;;;;;20.29;100.00;-24381.38;5071276;28;20209;-58
2022/06/06 04:56:04;;;;;;;5.00;3.10;;;;;;;20.11;100.00;-24376.50;5070782;28;20154;-58
2022/06/06 04:58:32;;;;;;;7.72;3.80;;;;;;;20.16;100.00;-24377.75;5071077;28;20197;-58
2022/06/06 05:01:02;;;;;;;10.18;3.83;;;;;;;20.40;100.00;-24384.44;5071225;28;20177;-57
2022/06/06 05:03:27;;;;;;;6.72;3.25;;;;;;;20.14;100.00;-24377.34;5071247;28;20178;-59
2022/06/06 05:06:11;;;;;;;7.25;3.78;;;;;;;20.69;100.00;-24392.47;5071581;28;20162;-59
2022/06/06 05:08:45;;;;;;;3.97;3.50;;;;;;;20.29;100.00;-24381.38;5070589;28;20718;-55
2022/06/06 05:11:16;;;;;;;5.88;3.50;;;;;;;20.65;100.00;-24391.22;5070938;28;20260;-58
2022/06/06 05:14:06;;;;;;;4.15;2.90;;;;;;;20.66;100.00;-24391.50;5071150;28;20178;-56
2022/06/06 05:16:40;;;;;;;5.65;3.03;;;;;;;20.81;100.00;-24395.53;5070787;28;20200;-58
2022/06/06 05:19:21;;;;;;;6.60;3.45;;;;;;;20.95;100.00;-24399.56;5071028;28;20566;-58
2022/06/06 05:22:02;;;;;;;4.65;3.20;;;;;;;21.01;100.00;-24401.22;5074677;28;20174;-58
2022/06/06 05:25:00;;;;;;;5.65;3.20;;;;;;;20.61;100.00;-24390.13;5073497;28;20240;-57
2022/06/06 05:28:03;;;;;;;5.85;3.60;;;;;;;20.96;100.00;-24399.84;5072984;28;20194;-57
2022/06/06 05:30:41;;;;;;;5.47;3.40;;;;;;;21.02;100.00;-24401.50;5071502;28;20543;-57
2022/06/06 05:33:24;;;;;;;4.70;3.55;;;;;;;20.75;100.00;-24393.88;5067649;28;20714;-58
2022/06/06 05:36:15;;;;;;;8.77;4.03;;;;;;;21.07;100.00;-24402.88;5067930;28;20186;-59
2022/06/06 05:38:43;;;;;;;5.88;3.40;;;;;;;21.35;100.00;-24410.38;5052917;28;20238;-56
2022/06/06 05:41:27;;;;;;;5.88;3.22;;;;;;;21.68;100.00;-24419.53;5063006;28;20208;-57
2022/06/06 05:43:58;;;;;;;6.05;3.35;;;;;;;21.87;100.00;-24424.66;5074784;28;20177;-57
2022/06/06 05:46:57;;;;;;;3.58;2.92;;;;;;;22.17;100.00;-24432.97;5057611;28;20217;-58
2022/06/06 05:49:42;;;;;;;4.97;3.28;;;;;;;22.65;100.00;-24445.97;5053988;28;20646;-58
2022/06/06 05:52:35;;;;;;;7.57;3.67;;;;;;;23.02;100.00;-24456.06;5053676;28;20174;-58
2022/06/06 05:55:15;;;;;;;5.72;2.88;;;;;;;23.98;100.00;-24482.28;5053999;28;20159;-59
2022/06/06 05:57:52;;;;;;;4.55;2.70;;;;;;;24.12;100.00;-24486.28;5053745;28;20194;-58
2022/06/06 06:00:45;;;;;;;6.00;3.03;;;;;;;24.09;100.00;-24485.31;5054340;28;20179;-59
2022/06/06 06:03:39;;;;;;;3.92;2.70;;;;;;;24.61;100.00;-24499.66;5052215;28;20218;-58
2022/06/06 06:06:21;;;;;;;3.83;2.78;;;;;;;25.04;100.00;-24511.25;5053761;28;20236;-56
2022/06/06 06:09:16;;;;;;;3.30;2.55;;;;;;;25.18;100.00;-24514.94;5053469;28;20650;-58
2022/06/06 06:11:53;;;;;;;7.53;2.67;;;;;;;25.60;100.00;-24526.38;5053840;28;20175;-60
2022/06/06 06:14:37;;;;;;;4.45;3.00;;;;;;;25.86;100.00;-24533.53;5054236;28;20633;-59
2022/06/06 06:17:03;;;;;;;5.63;2.70;;;;;;;25.43;100.00;-24521.97;5053454;28;20163;-58
2022/06/06 06:19:41;;;;;;;5.22;2.63;;;;;;;25.50;100.00;-24523.91;5053918;28;20575;-58
2022/06/06 06:22:08;;;;;;;4.43;2.58;;;;;;;25.01;100.00;-24510.56;5054076;28;20189;-59
2022/06/06 06:24:42;;;;;;;4.50;2.30;;;;;;;24.57;100.00;-24498.56;5052830;28;20174;-60
2022/06/06 06:27:08;;;;;;;2.80;2.10;;;;;;;25.04;100.00;-24511.38;5053443;28;20170;-58
2022/06/06 06:29:34;;;;;;;4.07;2.80;;;;;;;25.08;100.00;-24512.47;5053658;28;20179;-57
2022/06/06 06:32:32;;;;;;;6.85;3.08;;;;;;;25.74;100.00;-24530.38;5054089;28;20529;-57
2022/06/06 06:35:11;;;;;;;5.18;3.35;;;;;;;25.90;100.00;-24534.63;5054349;28;20203;-59
2022/06/06 06:37:42;;;;;;;4.13;2.58;;;;;;;25.72;100.00;-24529.81;5054221;28;20276;-57
2022/06/06 06:40:11;;;;;;;6.05;2.55;;;;;;;25.81;100.00;-24532.16;5054223;28;20656;-58
2022/06/06 06:42:39;;;;;;;4.28;2.50;;;;;;;25.80;100.00;-24531.88;5053920;28;20248;-58
2022/06/06 06:45:29;;;;;;;4.38;2.42;;;;;;;25.41;100.00;-24521.28;5053633;28;20232;-57
2022/06/06 06:48:05;;;;;;;3.65;2.45;;;;;;;25.23;100.00;-24516.34;5053981;28;20236;-58
2022/06/06 06:50:40;;;;;;;3.80;2.60;;;;;;;24.87;100.00;-24506.56;5053594;28;20162;-59
2022/06/06 06:53:25;;;;;;;5.65;2.85;;;;;;;24.86;100.00;-24506.28;5054035;28;20166;-59
2022/06/06 06:56:09;;;;;;;5.18;2.92;;;;;;;25.00;100.00;-24510.28;5053596;28;20225;-59
2022/06/06 06:58:49;;;;;;;5.22;2.95;;;;;;;24.85;100.00;-24506.00;5053231;28;20195;-61
2022/06/06 07:01:26;;;;;;;4.20;2.70;;;;;;;25.07;100.00;-24512.19;5054001;28;20174;-60
2022/06/06 07:09:25;;;;;;;5.15;3.33;;;;;;;24.87;100.00;-24506.56;5053394;28;20289;-59
2022/06/06 07:11:53;;;;;;;4.20;2.58;;;;;;;24.41;100.00;-24494.00;5053343;28;20183;-60
2022/06/06 07:14:44;;;;;;;7.50;3.22;;;;;;;24.54;100.00;-24497.75;5053720;28;20177;-58
2022/06/06 07:17:10;;;;;;;5.63;2.92;;;;;;;24.68;100.00;-24501.47;5053649;28;20202;-59
2022/06/06 07:19:45;;;;;;;4.80;3.17;;;;;;;24.84;100.00;-24505.72;5053205;28;20277;-60
2022/06/06 07:22:14;;;;;;;5.68;3.00;;;;;;;24.52;100.00;-24497.19;5053201;28;20686;-58
2022/06/06 07:24:41;;;;;;;4.82;3.03;;;;;;;24.49;100.00;-24496.22;5053316;28;20171;-59
2022/06/06 07:27:09;;;;;;;8.85;3.30;;;;;;;23.75;100.00;-24476.09;5053303;28;20244;-59
2022/06/06 07:29:35;;;;;;;9.52;4.28;;;;;;;23.10;100.00;-24458.25;5052836;28;20174;-60
2022/06/06 07:32:06;;;;;;;6.57;3.30;;;;;;;23.04;100.00;-24456.59;5052807;28;20171;-59
2022/06/06 07:35:00;;;;;;;9.45;3.95;;;;;;;22.67;100.00;-24446.50;5052994;28;20174;-59
2022/06/06 07:37:29;;;;;;;6.78;4.03;;;;;;;22.75;100.00;-24448.88;5048034;28;20661;-59
2022/06/06 07:40:15;;;;;;;6.30;3.30;;;;;;;22.77;100.00;-24449.28;5053016;28;20181;-59
2022/06/06 07:43:00;;;;;;;6.00;3.33;;;;;;;22.72;100.00;-24448.03;5052122;28;20175;-59
2022/06/06 07:45:31;;;;;;;6.20;3.00;;;;;;;22.79;100.00;-24449.97;5052731;28;20189;-61
2022/06/06 07:48:27;;;;;;;4.70;3.55;;;;;;;23.14;100.00;-24459.38;5052627;28;20226;-59
2022/06/06 07:51:15;;;;;;;5.18;3.20;;;;;;;23.08;100.00;-24457.84;5052298;28;20217;-60
2022/06/06 07:53:53;;;;;;;5.72;3.50;;;;;;;23.30;100.00;-24463.94;5052480;28;20190;-58
2022/06/06 07:56:43;;;;;;;4.40;3.38;;;;;;;23.02;100.00;-24456.06;5052734;28;20170;-58
2022/06/06 07:59:38;;;;;;;7.47;3.38;;;;;;;23.11;100.00;-24458.69;5044208;28;20232;-59
2022/06/06 08:02:22;;;;;;;9.77;3.45;;;;;;;22.51;100.00;-24442.22;5052365;28;20174;-58
2022/06/06 08:05:34;;;;;;;6.95;3.30;;;;;;;22.58;100.00;-24444.16;5051893;28;20200;-59
2022/06/06 08:08:41;;;;;;;4.70;3.40;;;;;;;22.68;100.00;-24446.94;5010527;28;20177;-58
2022/06/06 08:11:41;;;;;;;6.10;3.67;;;;;;;22.31;100.00;-24436.69;5052144;28;20174;-59
2022/06/06 08:14:33;;;;;;;4.63;3.10;;;;;;;22.52;100.00;-24442.50;5048748;28;20568;-59
2022/06/06 08:17:12;;;;;;;7.78;3.58;;;;;;;22.96;100.00;-24454.53;5052062;28;20199;-58
2022/06/06 08:19:56;;;;;;;6.55;3.72;;;;;;;23.76;100.00;-24476.50;5053042;28;20261;-61
2022/06/06 08:22:25;;;;;;;7.97;4.07;;;;;;;24.64;100.00;-24500.34;5052186;28;20662;-58
2022/06/06 08:24:53;;;;;;;5.20;3.28;;;;;;;25.25;100.00;-24516.88;5052120;28;20587;-58
2022/06/06 08:27:19;;;;;;;5.00;3.33;;;;;;;26.04;100.00;-24538.47;5058278;28;20173;-59
2022/06/06 08:29:47;;;;;;;4.63;3.28;;;;;;;26.68;100.00;-24555.78;5070996;28;20182;-58
2022/06/06 08:32:14;;;;;;;7.15;3.95;;;;;;;27.03;100.00;-24565.38;5072152;28;20170;-57
2022/06/06 08:34:40;;;;;;;6.78;3.65;;;;;;;27.38;100.00;-24574.72;5068784;28;20197;-59
2022/06/06 08:37:24;;;;;;;6.55;3.33;;;;;;;27.39;100.00;-24574.97;5056815;28;20562;-58
2022/06/06 08:39:59;;;;;;;4.45;2.97;;;;;;;27.42;100.00;-24575.94;5069795;28;20649;-59
2022/06/06 08:42:44;;;;;;;5.07;3.25;;;;;;;27.31;100.00;-24572.78;5064850;28;20672;-59
2022/06/06 08:45:19;;;;;;;5.60;3.28;;;;;;;27.03;100.00;-24565.38;5064890;28;20194;-60
2022/06/06 08:47:54;;;;;;;7.57;3.70;;;;;;;26.65;100.00;-24554.97;5061598;28;20217;-59
2022/06/06 08:50:46;;;;;;;4.47;2.80;;;;;;;26.01;100.00;-24537.50;5068382;28;20177;-59
2022/06/06 08:53:35;;;;;;;6.95;3.20;;;;;;;25.07;100.00;-24512.19;5065076;28;20182;-57
2022/06/06 08:56:34;;;;;;;6.13;3.70;;;;;;;25.01;100.00;-24510.41;5068616;28;20614;-60
2022/06/06 08:59:12;;;;;;;6.00;3.70;;;;;;;24.97;100.00;-24509.31;5069900;28;20281;-57
2022/06/06 09:01:46;;;;;;;7.38;3.75;;;;;;;24.79;100.00;-24504.47;5074304;28;20190;-58
2022/06/06 09:04:26;;;;;;;5.68;3.42;;;;;;;24.73;100.00;-24502.69;5071437;28;20185;-58
2022/06/06 09:07:10;;;;;;;6.07;3.67;;;;;;;24.61;100.00;-24499.66;5059080;28;20184;-59
2022/06/06 09:10:06;;;;;;;7.28;4.03;;;;;;;24.64;100.00;-24500.50;5075094;28;20189;-59
2022/06/06 09:12:37;;;;;;;7.45;3.58;;;;;;;24.42;100.00;-24494.44;5069077;28;20210;-59
2022/06/06 09:15:24;;;;;;;4.95;3.38;;;;;;;24.52;100.00;-24497.19;5075611;28;20636;-59
2022/06/06 09:18:25;;;;;;;8.25;4.50;;;;;;;25.03;100.00;-24510.97;5064448;28;20199;-60
2022/06/06 09:21:18;;;;;;;8.13;4.40;;;;;;;25.62;100.00;-24526.94;5045686;28;20194;-58
2022/06/06 09:24:17;;;;;;;6.07;4.15;;;;;;;25.83;100.00;-24532.69;5065055;28;20174;-59
2022/06/06 09:27:26;;;;;;;5.13;3.42;;;;;;;25.22;100.00;-24516.06;5061150;28;20182;-59
2022/06/06 09:30:10;;;;;;;5.07;3.40;;;;;;;25.15;100.00;-24514.13;5060918;28;20188;-59
2022/06/06 09:32:57;;;;;;;5.70;3.60;;;;;;;25.41;100.00;-24521.28;5061064;28;20301;-59
2022/06/06 09:35:47;;;;;;;5.13;3.40;;;;;;;25.97;100.00;-24536.56;5060343;28;20265;-59
2022/06/06 09:38:24;;;;;;;4.35;3.08;;;;;;;26.22;100.00;-24543.41;5061554;28;20561;-59
2022/06/06 09:41:26;;;;;;;4.85;3.55;;;;;;;26.72;100.00;-24556.88;5061599;28;20184;-58
2022/06/06 09:44:12;;;;;;;5.53;3.40;;;;;;;27.09;100.00;-24567.03;5060437;28;20182;-57
2022/06/06 09:47:14;;;;;;;3.83;2.53;;;;;;;27.61;100.00;-24581.00;5061436;28;20684;-58
2022/06/06 09:50:04;;;;;;;5.57;3.22;;;;;;;26.93;100.00;-24562.50;5060204;28;20185;-57
2022/06/06 09:52:48;;;;;;;4.72;3.20;;;;;;;26.35;100.00;-24547.00;5060432;28;20190;-59
2022/06/06 09:59:17;;;;;;;5.93;2.78;;;;;;;25.05;100.00;-24511.66;4991931;28;20294;-59
2022/06/06 10:02:32;;;;;;;4.30;3.00;;;;;;;25.14;100.00;-24513.84;5048326;28;20205;-58
2022/06/06 10:05:19;;;;;;;3.47;2.63;;;;;;;24.72;100.00;-24502.41;5060043;28;20178;-58
2022/06/06 10:08:03;;;;;;;5.53;2.70;;;;;;;24.62;100.00;-24499.81;5062485;28;20213;-58
2022/06/06 10:11:22;;;;;;;5.18;3.10;;;;;;;24.76;100.00;-24503.53;5062546;28;20185;-59
2022/06/06 10:14:08;;;;;;;3.53;2.38;;;;;;;24.68;100.00;-24501.47;5040099;28;20356;-59
2022/06/06 10:16:41;;;;;;;6.60;3.28;;;;;;;24.85;100.00;-24506.00;5062149;28;20578;-59
2022/06/06 10:19:43;;;;;;;4.75;2.92;;;;;;;24.71;100.00;-24502.16;5074075;28;20241;-59
2022/06/06 10:22:20;;;;;;;6.45;3.30;;;;;;;24.62;100.00;-24499.94;5057711;28;20628;-59
2022/06/06 10:25:10;;;;;;;4.03;3.38;;;;;;;24.22;100.00;-24488.78;5054550;28;20220;-59
2022/06/06 10:27:52;;;;;;;4.07;3.20;;;;;;;24.27;100.00;-24490.28;5058074;28;20609;-59
2022/06/06 10:30:22;;;;;;;4.68;3.10;;;;;;;23.87;100.00;-24479.25;5072846;28;20239;-59
2022/06/06 10:33:05;;;;;;;3.90;2.97;;;;;;;24.07;100.00;-24484.91;5060068;28;20196;-58
2022/06/06 10:35:53;;;;;;;5.35;3.03;;;;;;;24.02;100.00;-24483.53;5053212;28;20166;-59
2022/06/06 10:38:37;;;;;;;4.40;2.70;;;;;;;24.03;100.00;-24483.66;5052284;28;20206;-58
2022/06/06 10:41:24;;;;;;;4.47;3.35;;;;;;;24.02;100.00;-24483.41;5053168;28;20171;-58
2022/06/06 10:44:27;;;;;;;4.28;2.88;;;;;;;24.04;100.00;-24484.09;5052832;28;20198;-58
2022/06/06 10:47:03;;;;;;;6.28;2.97;;;;;;;23.82;100.00;-24477.88;5053315;28;20270;-60
2022/06/06 10:49:47;;;;;;;5.00;3.00;;;;;;;23.63;100.00;-24472.91;5053290;28;20163;-58
2022/06/06 10:52:27;;;;;;;4.50;3.15;;;;;;;23.66;100.00;-24473.75;5053359;28;20174;-59
2022/06/06 10:55:21;;;;;;;6.38;2.80;;;;;;;23.59;100.00;-24471.81;5053139;28;20166;-58
2022/06/06 10:58:14;;;;;;;5.45;2.83;;;;;;;23.49;100.00;-24469.03;5053169;28;20281;-58
2022/06/06 11:01:01;;;;;;;4.97;3.00;;;;;;;23.44;100.00;-24467.66;5052962;28;20179;-57
2022/06/06 11:03:55;;;;;;;6.80;2.42;;;;;;;23.35;100.00;-24465.31;5052955;28;20167;-57
2022/06/06 11:06:41;;;;;;;4.72;2.80;;;;;;;23.28;100.00;-24463.25;5052649;28;20171;-59
2022/06/06 11:09:31;;;;;;;3.65;2.40;;;;;;;23.36;100.00;-24465.44;5064035;28;20294;-59
2022/06/06 11:12:09;;;;;;;4.90;3.10;;;;;;;23.25;100.00;-24462.56;5070763;28;20214;-59
2022/06/06 11:14:38;;;;;;;5.00;3.03;;;;;;;22.68;100.00;-24446.78;5064596;28;20195;-59
2022/06/06 11:17:26;;;;;;;3.65;2.50;;;;;;;23.20;100.00;-24461.03;5055654;28;20175;-59
2022/06/06 11:20:22;;;;;;;5.43;2.45;;;;;;;23.26;100.00;-24462.69;5036085;28;20193;-59
2022/06/06 11:23:10;;;;;;;3.85;2.30;;;;;;;23.37;100.00;-24465.59;5072281;28;20682;-60
2022/06/06 11:26:00;;;;;;;5.20;2.60;;;;;;;23.37;100.00;-24465.72;5072555;28;20177;-58
2022/06/06 11:28:39;;;;;;;5.10;2.60;;;;;;;23.21;100.00;-24461.31;5072273;28;20608;-59
2022/06/06 11:31:23;;;;;;;4.93;2.75;;;;;;;23.03;100.00;-24456.47;5072607;28;20169;-59
2022/06/06 11:34:13;;;;;;;4.35;2.60;;;;;;;23.08;100.00;-24457.84;5071678;28;20178;-59
2022/06/06 11:36:47;;;;;;;3.22;2.40;;;;;;;23.18;100.00;-24460.63;5072145;28;20211;-59
2022/06/06 11:39:32;;;;;;;5.47;3.05;;;;;;;22.94;100.00;-24453.97;5072251;28;20298;-57
2022/06/06 11:41:57;;;;;;;4.18;2.70;;;;;;;23.57;100.00;-24471.25;5071586;28;20174;-58
2022/06/06 11:44:37;;;;;;;6.80;2.60;;;;;;;23.69;100.00;-24474.44;5071950;28;20251;-60
2022/06/06 11:47:22;;;;;;;4.60;3.30;;;;;;;23.82;100.00;-24477.88;5063524;28;20253;-58
2022/06/06 11:49:53;;;;;;;3.60;2.20;;;;;;;24.20;100.00;-24488.50;5052432;28;20243;-59
2022/06/06 11:52:44;;;;;;;3.55;2.75;;;;;;;24.23;100.00;-24489.19;5066670;28;20182;-61
2022/06/06 11:56:03;;;;;;;4.00;2.78;;;;;;;24.76;100.00;-24503.53;5072284;28;20663;-58
2022/06/06 11:58:44;;;;;;;5.15;2.67;;;;;;;24.90;100.00;-24507.38;5029163;28;20302;-59
2022/06/06 12:01:37;;;;;;;7.07;2.42;;;;;;;25.17;100.00;-24514.81;5072675;28;20197;-59
2022/06/06 12:04:39;;;;;;;5.90;2.38;;;;;;;25.60;100.00;-24526.50;5072138;28;20306;-59
2022/06/06 12:07:38;;;;;;;2.95;2.20;;;;;;;25.75;100.00;-24530.50;5071988;28;20256;-59
2022/06/06 12:10:15;;;;;;;3.75;2.20;;;;;;;26.22;100.00;-24543.41;5072307;28;20533;-58
2022/06/06 12:13:08;;;;;;;2.50;1.85;;;;;;;26.16;100.00;-24541.78;5069493;28;20177;-58
2022/06/06 12:15:53;;;;;;;4.70;2.03;;;;;;;26.35;100.00;-24546.84;5066875;28;20673;-58
2022/06/06 12:18:40;;;;;;;2.13;1.80;;;;;;;26.55;100.00;-24552.22;5069359;28;20237;-58
2022/06/06 12:21:18;;;;;;;3.83;2.00;;;;;;;27.01;100.00;-24564.84;5067660;28;20202;-59
2022/06/06 12:24:11;;;;;;;4.05;1.52;;;;;;;27.29;100.00;-24572.38;5069366;28;20213;-58
2022/06/06 12:26:58;;;;;;;2.92;1.73;;;;;;;26.83;100.00;-24560.03;5070071;28;20234;-58
2022/06/06 12:29:32;;;;;;;2.83;1.50;;;;;;;26.98;100.00;-24563.88;5068531;28;20175;-59